sensor_id;sensor_type;location;lat;lon;timestamp;P1;durP1;ratioP1;P2;durP2;ratioP2
80138;SDS011;69467;59.842;17.604;2023-07-13T00:03:52;4.90;;;3.60;;
80138;SDS011;69467;59.842;17.604;2023-07-13T00:06:18;3.45;;;2.67;;
80138;SDS011;69467;59.842;17.604;2023-07-13T00:08:45;3.33;;;3.13;;
80138;SDS011;69467;59.842;17.604;2023-07-13T00:13:36;2.45;;;2.25;;
80138;SDS011;69467;59.842;17.604;2023-07-13T00:16:04;4.55;;;2.45;;
80138;SDS011;69467;59.842;17.604;2023-07-13T00:20:55;5.05;;;2.25;;
80138;SDS011;69467;59.842;17.604;2023-07-13T00:23:22;3.65;;;2.58;;
80138;SDS011;69467;59.842;17.604;2023-07-13T00:25:48;3.50;;;2.20;;
80138;SDS011;69467;59.842;17.604;2023-07-13T00:28:15;5.65;;;2.45;;
80138;SDS011;69467;59.842;17.604;2023-07-13T00:33:06;3.57;;;2.43;;
80138;SDS011;69467;59.842;17.604;2023-07-13T00:37:58;2.50;;;2.30;;
80138;SDS011;69467;59.842;17.604;2023-07-13T00:42:51;15.93;;;3.17;;
80138;SDS011;69467;59.842;17.604;2023-07-13T00:50:09;2.00;;;1.85;;
80138;SDS011;69467;59.842;17.604;2023-07-13T00:52:37;3.15;;;2.88;;
80138;SDS011;69467;59.842;17.604;2023-07-13T00:55:05;4.57;;;2.83;;
80138;SDS011;69467;59.842;17.604;2023-07-13T00:57:32;3.10;;;2.25;;
80138;SDS011;69467;59.842;17.604;2023-07-13T01:02:25;3.25;;;3.05;;
80138;SDS011;69467;59.842;17.604;2023-07-13T01:04:53;5.70;;;2.45;;
80138;SDS011;69467;59.842;17.604;2023-07-13T01:09:44;3.88;;;2.80;;
80138;SDS011;69467;59.842;17.604;2023-07-13T01:12:10;3.35;;;3.05;;
80138;SDS011;69467;59.842;17.604;2023-07-13T01:17:01;3.47;;;2.67;;
80138;SDS011;69467;59.842;17.604;2023-07-13T01:21:55;3.45;;;3.15;;
80138;SDS011;69467;59.842;17.604;2023-07-13T01:24:20;3.72;;;3.42;;
80138;SDS011;69467;59.842;17.604;2023-07-13T01:26:46;3.30;;;3.00;;
80138;SDS011;69467;59.842;17.604;2023-07-13T01:31:36;3.33;;;2.88;;
80138;SDS011;69467;59.842;17.604;2023-07-13T01:34:02;3.38;;;3.08;;
80138;SDS011;69467;59.842;17.604;2023-07-13T01:36:27;4.30;;;2.60;;
80138;SDS011;69467;59.842;17.604;2023-07-13T01:41:18;3.33;;;3.03;;
80138;SDS011;69467;59.842;17.604;2023-07-13T01:43:44;3.17;;;2.88;;
80138;SDS011;69467;59.842;17.604;2023-07-13T01:48:35;5.55;;;3.42;;
80138;SDS011;69467;59.842;17.604;2023-07-13T01:53:25;2.47;;;2.27;;
80138;SDS011;69467;59.842;17.604;2023-07-13T01:55:51;2.47;;;2.28;;
80138;SDS011;69467;59.842;17.604;2023-07-13T01:58:16;2.78;;;2.55;;
80138;SDS011;69467;59.842;17.604;2023-07-13T02:00:42;3.53;;;3.22;;
80138;SDS011;69467;59.842;17.604;2023-07-13T02:03:07;4.57;;;3.08;;
80138;SDS011;69467;59.842;17.604;2023-07-13T02:07:58;4.60;;;2.50;;
80138;SDS011;69467;59.842;17.604;2023-07-13T02:10:24;5.30;;;3.08;;
80138;SDS011;69467;59.842;17.604;2023-07-13T02:12:50;2.80;;;2.40;;
80138;SDS011;69467;59.842;17.604;2023-07-13T02:15:15;4.60;;;3.08;;
80138;SDS011;69467;59.842;17.604;2023-07-13T02:20:07;4.22;;;2.55;;
80138;SDS011;69467;59.842;17.604;2023-07-13T02:22:34;3.30;;;2.78;;
80138;SDS011;69467;59.842;17.604;2023-07-13T02:25:00;4.07;;;3.47;;
80138;SDS011;69467;59.842;17.604;2023-07-13T02:27:25;5.82;;;3.53;;
80138;SDS011;69467;59.842;17.604;2023-07-13T02:32:16;3.85;;;3.42;;
80138;SDS011;69467;59.842;17.604;2023-07-13T02:37:07;5.32;;;3.70;;
80138;SDS011;69467;59.842;17.604;2023-07-13T02:39:33;5.30;;;3.80;;
80138;SDS011;69467;59.842;17.604;2023-07-13T02:44:25;5.22;;;3.92;;
80138;SDS011;69467;59.842;17.604;2023-07-13T02:46:51;4.80;;;3.58;;
80138;SDS011;69467;59.842;17.604;2023-07-13T02:51:41;10.37;;;3.77;;
80138;SDS011;69467;59.842;17.604;2023-07-13T02:54:07;5.18;;;4.53;;
80138;SDS011;69467;59.842;17.604;2023-07-13T02:56:33;3.83;;;3.35;;
80138;SDS011;69467;59.842;17.604;2023-07-13T02:58:59;4.00;;;3.63;;
80138;SDS011;69467;59.842;17.604;2023-07-13T03:03:50;4.25;;;3.85;;
80138;SDS011;69467;59.842;17.604;2023-07-13T03:06:16;5.50;;;4.35;;
80138;SDS011;69467;59.842;17.604;2023-07-13T03:11:09;8.18;;;4.90;;
80138;SDS011;69467;59.842;17.604;2023-07-13T03:13:37;7.50;;;4.90;;
80138;SDS011;69467;59.842;17.604;2023-07-13T03:16:03;4.57;;;4.15;;
80138;SDS011;69467;59.842;17.604;2023-07-13T03:18:30;7.13;;;4.65;;
80138;SDS011;69467;59.842;17.604;2023-07-13T03:20:56;8.02;;;4.60;;
80138;SDS011;69467;59.842;17.604;2023-07-13T03:23:21;8.35;;;4.10;;
80138;SDS011;69467;59.842;17.604;2023-07-13T03:25:47;6.45;;;3.85;;
80138;SDS011;69467;59.842;17.604;2023-07-13T03:28:13;5.38;;;4.82;;
80138;SDS011;69467;59.842;17.604;2023-07-13T03:30:39;5.28;;;4.43;;
80138;SDS011;69467;59.842;17.604;2023-07-13T03:33:05;6.07;;;4.25;;
80138;SDS011;69467;59.842;17.604;2023-07-13T03:35:31;7.05;;;4.35;;
80138;SDS011;69467;59.842;17.604;2023-07-13T03:37:57;5.00;;;4.30;;
80138;SDS011;69467;59.842;17.604;2023-07-13T03:40:24;6.22;;;5.20;;
80138;SDS011;69467;59.842;17.604;2023-07-13T03:42:51;5.88;;;4.70;;
80138;SDS011;69467;59.842;17.604;2023-07-13T03:45:17;8.90;;;5.68;;
80138;SDS011;69467;59.842;17.604;2023-07-13T03:47:42;6.07;;;4.60;;
80138;SDS011;69467;59.842;17.604;2023-07-13T03:50:08;7.15;;;5.40;;
80138;SDS011;69467;59.842;17.604;2023-07-13T03:52:34;6.97;;;6.05;;
80138;SDS011;69467;59.842;17.604;2023-07-13T03:54:59;6.85;;;3.80;;
80138;SDS011;69467;59.842;17.604;2023-07-13T03:59:50;8.73;;;4.78;;
80138;SDS011;69467;59.842;17.604;2023-07-13T04:04:41;6.13;;;5.23;;
80138;SDS011;69467;59.842;17.604;2023-07-13T04:07:06;6.80;;;4.88;;
80138;SDS011;69467;59.842;17.604;2023-07-13T04:09:33;7.25;;;4.88;;
80138;SDS011;69467;59.842;17.604;2023-07-13T04:14:24;8.40;;;5.05;;
80138;SDS011;69467;59.842;17.604;2023-07-13T04:16:50;10.52;;;5.07;;
80138;SDS011;69467;59.842;17.604;2023-07-13T04:21:40;13.40;;;5.33;;
80138;SDS011;69467;59.842;17.604;2023-07-13T04:26:32;11.60;;;5.35;;
80138;SDS011;69467;59.842;17.604;2023-07-13T04:29:00;5.90;;;4.53;;
80138;SDS011;69467;59.842;17.604;2023-07-13T04:31:28;8.82;;;5.32;;
80138;SDS011;69467;59.842;17.604;2023-07-13T04:33:54;16.48;;;5.53;;
80138;SDS011;69467;59.842;17.604;2023-07-13T04:38:45;8.83;;;4.10;;
80138;SDS011;69467;59.842;17.604;2023-07-13T04:43:36;8.23;;;4.97;;
80138;SDS011;69467;59.842;17.604;2023-07-13T04:48:31;27.17;;;4.82;;
80138;SDS011;69467;59.842;17.604;2023-07-13T04:50:57;11.93;;;4.20;;
80138;SDS011;69467;59.842;17.604;2023-07-13T04:53:23;8.45;;;4.25;;
80138;SDS011;69467;59.842;17.604;2023-07-13T04:55:50;12.10;;;5.50;;
80138;SDS011;69467;59.842;17.604;2023-07-13T05:00:41;10.13;;;4.57;;
80138;SDS011;69467;59.842;17.604;2023-07-13T05:05:32;7.47;;;4.00;;
80138;SDS011;69467;59.842;17.604;2023-07-13T05:12:49;4.65;;;3.90;;
80138;SDS011;69467;59.842;17.604;2023-07-13T05:15:14;8.13;;;3.38;;
80138;SDS011;69467;59.842;17.604;2023-07-13T05:20:06;7.18;;;4.00;;
80138;SDS011;69467;59.842;17.604;2023-07-13T05:22:33;10.00;;;3.67;;
80138;SDS011;69467;59.842;17.604;2023-07-13T05:25:00;5.80;;;3.20;;
80138;SDS011;69467;59.842;17.604;2023-07-13T05:27:29;3.08;;;2.60;;
80138;SDS011;69467;59.842;17.604;2023-07-13T05:32:20;8.23;;;3.22;;
80138;SDS011;69467;59.842;17.604;2023-07-13T05:37:11;7.90;;;2.60;;
80138;SDS011;69467;59.842;17.604;2023-07-13T05:39:37;4.32;;;2.60;;
80138;SDS011;69467;59.842;17.604;2023-07-13T05:42:02;6.95;;;3.20;;
80138;SDS011;69467;59.842;17.604;2023-07-13T05:44:28;4.30;;;2.60;;
80138;SDS011;69467;59.842;17.604;2023-07-13T05:46:54;10.05;;;3.03;;
80138;SDS011;69467;59.842;17.604;2023-07-13T05:49:21;7.32;;;3.38;;
80138;SDS011;69467;59.842;17.604;2023-07-13T05:54:12;8.45;;;2.42;;
80138;SDS011;69467;59.842;17.604;2023-07-13T05:59:03;9.48;;;3.13;;
80138;SDS011;69467;59.842;17.604;2023-07-13T06:03:55;8.45;;;3.50;;
80138;SDS011;69467;59.842;17.604;2023-07-13T06:08:45;6.13;;;2.83;;
80138;SDS011;69467;59.842;17.604;2023-07-13T06:13:39;7.60;;;3.15;;
80138;SDS011;69467;59.842;17.604;2023-07-13T06:18:30;5.10;;;1.80;;
80138;SDS011;69467;59.842;17.604;2023-07-13T06:20:57;4.47;;;3.28;;
80138;SDS011;69467;59.842;17.604;2023-07-13T06:30:38;5.63;;;2.97;;
80138;SDS011;69467;59.842;17.604;2023-07-13T06:35:29;3.63;;;2.20;;
80138;SDS011;69467;59.842;17.604;2023-07-13T06:40:20;8.18;;;2.67;;
80138;SDS011;69467;59.842;17.604;2023-07-13T06:45:11;5.03;;;2.27;;
80138;SDS011;69467;59.842;17.604;2023-07-13T06:50:02;6.40;;;2.35;;
80138;SDS011;69467;59.842;17.604;2023-07-13T06:54:53;4.18;;;1.63;;
80138;SDS011;69467;59.842;17.604;2023-07-13T06:59:43;4.30;;;1.60;;
80138;SDS011;69467;59.842;17.604;2023-07-13T07:02:10;2.00;;;1.10;;
80138;SDS011;69467;59.842;17.604;2023-07-13T07:04:36;7.05;;;2.75;;
80138;SDS011;69467;59.842;17.604;2023-07-13T07:09:27;4.82;;;1.30;;
80138;SDS011;69467;59.842;17.604;2023-07-13T07:11:55;5.63;;;1.52;;
80138;SDS011;69467;59.842;17.604;2023-07-13T07:19:11;3.47;;;1.80;;
80138;SDS011;69467;59.842;17.604;2023-07-13T07:24:01;4.70;;;1.33;;
80138;SDS011;69467;59.842;17.604;2023-07-13T07:26:28;6.22;;;1.92;;
80138;SDS011;69467;59.842;17.604;2023-07-13T07:33:44;3.28;;;1.40;;
80138;SDS011;69467;59.842;17.604;2023-07-13T07:38:36;6.78;;;2.15;;
80138;SDS011;69467;59.842;17.604;2023-07-13T07:43:28;2.45;;;1.42;;
80138;SDS011;69467;59.842;17.604;2023-07-13T07:48:19;4.43;;;1.35;;
80138;SDS011;69467;59.842;17.604;2023-07-13T07:53:10;5.80;;;2.00;;
80138;SDS011;69467;59.842;17.604;2023-07-13T07:58:01;6.68;;;2.00;;
80138;SDS011;69467;59.842;17.604;2023-07-13T08:02:55;4.10;;;1.25;;
80138;SDS011;69467;59.842;17.604;2023-07-13T08:07:46;7.55;;;1.27;;
80138;SDS011;69467;59.842;17.604;2023-07-13T08:12:37;5.63;;;1.60;;
80138;SDS011;69467;59.842;17.604;2023-07-13T08:15:03;7.68;;;1.85;;
80138;SDS011;69467;59.842;17.604;2023-07-13T08:19:54;6.85;;;1.60;;
80138;SDS011;69467;59.842;17.604;2023-07-13T08:24:45;1.75;;;1.17;;
80138;SDS011;69467;59.842;17.604;2023-07-13T08:27:12;4.68;;;1.77;;
80138;SDS011;69467;59.842;17.604;2023-07-13T08:29:38;11.45;;;1.85;;
80138;SDS011;69467;59.842;17.604;2023-07-13T08:32:05;5.20;;;1.55;;
80138;SDS011;69467;59.842;17.604;2023-07-13T08:34:34;5.18;;;1.17;;
80138;SDS011;69467;59.842;17.604;2023-07-13T08:39:25;10.68;;;2.30;;
80138;SDS011;69467;59.842;17.604;2023-07-13T08:41:54;5.32;;;0.90;;
80138;SDS011;69467;59.842;17.604;2023-07-13T08:45:04;3.72;;;1.08;;
80138;SDS011;69467;59.842;17.604;2023-07-13T08:47:23;3.45;;;1.23;;
80138;SDS011;69467;59.842;17.604;2023-07-13T08:49:50;3.17;;;0.90;;
80138;SDS011;69467;59.842;17.604;2023-07-13T08:52:22;3.67;;;1.13;;
80138;SDS011;69467;59.842;17.604;2023-07-13T08:54:51;2.70;;;1.00;;
80138;SDS011;69467;59.842;17.604;2023-07-13T08:57:23;3.08;;;1.40;;
80138;SDS011;69467;59.842;17.604;2023-07-13T08:59:55;2.20;;;1.58;;
80138;SDS011;69467;59.842;17.604;2023-07-13T09:02:27;3.90;;;1.00;;
80138;SDS011;69467;59.842;17.604;2023-07-13T09:05:08;5.28;;;1.40;;
80138;SDS011;69467;59.842;17.604;2023-07-13T09:15:39;0.88;;;0.88;;
80138;SDS011;69467;59.842;17.604;2023-07-13T09:23:01;3.08;;;0.90;;
80138;SDS011;69467;59.842;17.604;2023-07-13T09:25:33;4.78;;;2.05;;
80138;SDS011;69467;59.842;17.604;2023-07-13T09:28:47;7.60;;;1.90;;
80138;SDS011;69467;59.842;17.604;2023-07-13T09:33:26;6.68;;;2.13;;
80138;SDS011;69467;59.842;17.604;2023-07-13T09:35:54;4.25;;;1.50;;
80138;SDS011;69467;59.842;17.604;2023-07-13T09:38:22;4.38;;;1.55;;
80138;SDS011;69467;59.842;17.604;2023-07-13T09:41:05;5.45;;;1.60;;
80138;SDS011;69467;59.842;17.604;2023-07-13T09:46:31;5.55;;;1.30;;
80138;SDS011;69467;59.842;17.604;2023-07-13T09:48:56;5.72;;;1.60;;
80138;SDS011;69467;59.842;17.604;2023-07-13T09:56:20;6.57;;;0.77;;
80138;SDS011;69467;59.842;17.604;2023-07-13T09:58:51;4.50;;;1.25;;
80138;SDS011;69467;59.842;17.604;2023-07-13T10:01:30;3.03;;;1.42;;
80138;SDS011;69467;59.842;17.604;2023-07-13T10:04:01;2.92;;;1.10;;
80138;SDS011;69467;59.842;17.604;2023-07-13T10:06:27;3.78;;;2.20;;
80138;SDS011;69467;59.842;17.604;2023-07-13T10:08:52;3.15;;;1.42;;
80138;SDS011;69467;59.842;17.604;2023-07-13T10:11:23;2.65;;;1.40;;
80138;SDS011;69467;59.842;17.604;2023-07-13T10:13:58;2.38;;;1.23;;
80138;SDS011;69467;59.842;17.604;2023-07-13T10:16:36;3.10;;;0.90;;
80138;SDS011;69467;59.842;17.604;2023-07-13T10:19:11;2.53;;;0.70;;
80138;SDS011;69467;59.842;17.604;2023-07-13T10:21:59;2.78;;;0.60;;
80138;SDS011;69467;59.842;17.604;2023-07-13T10:24:27;2.33;;;1.27;;
80138;SDS011;69467;59.842;17.604;2023-07-13T10:27:05;3.08;;;0.80;;
80138;SDS011;69467;59.842;17.604;2023-07-13T10:29:46;5.05;;;1.55;;
80138;SDS011;69467;59.842;17.604;2023-07-13T10:32:17;4.97;;;1.40;;
80138;SDS011;69467;59.842;17.604;2023-07-13T10:34:46;3.15;;;1.40;;
80138;SDS011;69467;59.842;17.604;2023-07-13T10:37:16;5.32;;;2.28;;
80138;SDS011;69467;59.842;17.604;2023-07-13T10:39:45;4.70;;;1.38;;
80138;SDS011;69467;59.842;17.604;2023-07-13T10:42:13;2.50;;;0.90;;
80138;SDS011;69467;59.842;17.604;2023-07-13T10:44:43;2.42;;;1.60;;
80138;SDS011;69467;59.842;17.604;2023-07-13T10:47:11;5.18;;;1.67;;
80138;SDS011;69467;59.842;17.604;2023-07-13T10:49:40;3.10;;;1.08;;
80138;SDS011;69467;59.842;17.604;2023-07-13T10:52:34;3.35;;;1.17;;
80138;SDS011;69467;59.842;17.604;2023-07-13T10:58:01;5.88;;;1.05;;
80138;SDS011;69467;59.842;17.604;2023-07-13T11:00:33;3.47;;;1.08;;
80138;SDS011;69467;59.842;17.604;2023-07-13T11:03:12;2.83;;;0.90;;
80138;SDS011;69467;59.842;17.604;2023-07-13T11:05:40;7.55;;;2.05;;
80138;SDS011;69467;59.842;17.604;2023-07-13T11:08:15;6.82;;;1.45;;
80138;SDS011;69467;59.842;17.604;2023-07-13T11:10:53;3.47;;;0.98;;
80138;SDS011;69467;59.842;17.604;2023-07-13T11:18:44;2.45;;;0.68;;
80138;SDS011;69467;59.842;17.604;2023-07-13T11:21:21;7.93;;;1.27;;
80138;SDS011;69467;59.842;17.604;2023-07-13T11:23:52;2.05;;;0.73;;
80138;SDS011;69467;59.842;17.604;2023-07-13T11:31:57;4.85;;;1.23;;
80138;SDS011;69467;59.842;17.604;2023-07-13T11:34:26;2.00;;;0.68;;
80138;SDS011;69467;59.842;17.604;2023-07-13T11:36:55;4.00;;;0.93;;
80138;SDS011;69467;59.842;17.604;2023-07-13T11:39:31;4.55;;;0.90;;
80138;SDS011;69467;59.842;17.604;2023-07-13T11:44:28;2.00;;;0.82;;
80138;SDS011;69467;59.842;17.604;2023-07-13T11:46:58;4.80;;;0.95;;
80138;SDS011;69467;59.842;17.604;2023-07-13T11:49:30;2.35;;;1.27;;
80138;SDS011;69467;59.842;17.604;2023-07-13T11:51:57;3.08;;;1.33;;
80138;SDS011;69467;59.842;17.604;2023-07-13T11:54:25;3.78;;;0.90;;
80138;SDS011;69467;59.842;17.604;2023-07-13T11:56:51;4.85;;;1.10;;
80138;SDS011;69467;59.842;17.604;2023-07-13T11:59:18;7.22;;;1.20;;
80138;SDS011;69467;59.842;17.604;2023-07-13T12:01:49;4.28;;;1.17;;
80138;SDS011;69467;59.842;17.604;2023-07-13T12:04:22;5.63;;;2.30;;
80138;SDS011;69467;59.842;17.604;2023-07-13T12:09:41;2.88;;;0.90;;
80138;SDS011;69467;59.842;17.604;2023-07-13T12:12:14;7.60;;;1.08;;
80138;SDS011;69467;59.842;17.604;2023-07-13T12:14:42;5.43;;;1.58;;
80138;SDS011;69467;59.842;17.604;2023-07-13T12:17:13;3.80;;;0.90;;
80138;SDS011;69467;59.842;17.604;2023-07-13T12:19:43;5.28;;;1.75;;
80138;SDS011;69467;59.842;17.604;2023-07-13T12:22:09;4.78;;;1.52;;
80138;SDS011;69467;59.842;17.604;2023-07-13T12:24:37;3.42;;;0.50;;
80138;SDS011;69467;59.842;17.604;2023-07-13T12:27:04;2.95;;;1.13;;
80138;SDS011;69467;59.842;17.604;2023-07-13T12:29:31;1.77;;;1.00;;
80138;SDS011;69467;59.842;17.604;2023-07-13T12:31:57;3.53;;;1.35;;
80138;SDS011;69467;59.842;17.604;2023-07-13T12:34:24;2.25;;;0.68;;
80138;SDS011;69467;59.842;17.604;2023-07-13T12:37:01;1.52;;;0.60;;
80138;SDS011;69467;59.842;17.604;2023-07-13T12:39:35;6.80;;;1.23;;
80138;SDS011;69467;59.842;17.604;2023-07-13T12:42:36;3.22;;;0.98;;
80138;SDS011;69467;59.842;17.604;2023-07-13T12:44:58;4.97;;;0.68;;
80138;SDS011;69467;59.842;17.604;2023-07-13T12:47:27;1.25;;;0.73;;
80138;SDS011;69467;59.842;17.604;2023-07-13T12:49:54;6.78;;;0.77;;
80138;SDS011;69467;59.842;17.604;2023-07-13T12:52:31;3.13;;;0.80;;
80138;SDS011;69467;59.842;17.604;2023-07-13T12:54:59;1.13;;;0.68;;
80138;SDS011;69467;59.842;17.604;2023-07-13T12:57:49;12.57;;;5.53;;
80138;SDS011;69467;59.842;17.604;2023-07-13T13:02:50;1.17;;;0.70;;
80138;SDS011;69467;59.842;17.604;2023-07-13T13:05:17;14.77;;;1.10;;
80138;SDS011;69467;59.842;17.604;2023-07-13T13:07:43;7.00;;;0.82;;
80138;SDS011;69467;59.842;17.604;2023-07-13T13:10:11;79.13;;;7.30;;
80138;SDS011;69467;59.842;17.604;2023-07-13T13:12:38;1.40;;;0.82;;
80138;SDS011;69467;59.842;17.604;2023-07-13T13:15:07;3.75;;;0.68;;
80138;SDS011;69467;59.842;17.604;2023-07-13T13:17:33;7.32;;;1.10;;
80138;SDS011;69467;59.842;17.604;2023-07-13T13:19:59;4.65;;;0.80;;
80138;SDS011;69467;59.842;17.604;2023-07-13T13:22:25;2.05;;;0.90;;
80138;SDS011;69467;59.842;17.604;2023-07-13T13:24:50;6.70;;;1.30;;
80138;SDS011;69467;59.842;17.604;2023-07-13T13:27:16;1.73;;;1.20;;
80138;SDS011;69467;59.842;17.604;2023-07-13T13:29:44;2.45;;;0.63;;
80138;SDS011;69467;59.842;17.604;2023-07-13T13:32:11;7.63;;;1.00;;
80138;SDS011;69467;59.842;17.604;2023-07-13T13:34:38;3.13;;;1.02;;
80138;SDS011;69467;59.842;17.604;2023-07-13T13:37:05;52.88;;;5.35;;
80138;SDS011;69467;59.842;17.604;2023-07-13T13:39:43;2.40;;;0.88;;
80138;SDS011;69467;59.842;17.604;2023-07-13T13:42:09;5.20;;;0.90;;
80138;SDS011;69467;59.842;17.604;2023-07-13T13:44:35;4.05;;;1.20;;
80138;SDS011;69467;59.842;17.604;2023-07-13T13:47:00;1.60;;;0.60;;
80138;SDS011;69467;59.842;17.604;2023-07-13T13:49:27;2.95;;;0.82;;
80138;SDS011;69467;59.842;17.604;2023-07-13T13:51:55;3.28;;;1.55;;
80138;SDS011;69467;59.842;17.604;2023-07-13T13:54:21;1.33;;;0.60;;
80138;SDS011;69467;59.842;17.604;2023-07-13T13:56:49;4.68;;;0.60;;
80138;SDS011;69467;59.842;17.604;2023-07-13T13:59:16;2.85;;;0.70;;
80138;SDS011;69467;59.842;17.604;2023-07-13T14:01:42;1.98;;;0.52;;
80138;SDS011;69467;59.842;17.604;2023-07-13T14:04:13;5.38;;;1.95;;
80138;SDS011;69467;59.842;17.604;2023-07-13T14:06:41;4.07;;;1.10;;
80138;SDS011;69467;59.842;17.604;2023-07-13T14:09:10;5.65;;;1.08;;
80138;SDS011;69467;59.842;17.604;2023-07-13T14:11:38;2.28;;;0.80;;
80138;SDS011;69467;59.842;17.604;2023-07-13T14:14:08;4.88;;;0.88;;
80138;SDS011;69467;59.842;17.604;2023-07-13T14:16:39;1.20;;;0.77;;
80138;SDS011;69467;59.842;17.604;2023-07-13T14:19:07;6.45;;;1.02;;
80138;SDS011;69467;59.842;17.604;2023-07-13T14:21:36;1.33;;;0.52;;
80138;SDS011;69467;59.842;17.604;2023-07-13T14:24:02;3.35;;;0.60;;
80138;SDS011;69467;59.842;17.604;2023-07-13T14:26:27;4.47;;;1.85;;
80138;SDS011;69467;59.842;17.604;2023-07-13T14:28:56;3.67;;;1.65;;
80138;SDS011;69467;59.842;17.604;2023-07-13T14:31:24;4.50;;;0.90;;
80138;SDS011;69467;59.842;17.604;2023-07-13T14:33:51;3.55;;;1.33;;
80138;SDS011;69467;59.842;17.604;2023-07-13T14:38:44;2.35;;;0.88;;
80138;SDS011;69467;59.842;17.604;2023-07-13T14:41:10;3.75;;;1.23;;
80138;SDS011;69467;59.842;17.604;2023-07-13T14:43:35;1.92;;;0.60;;
80138;SDS011;69467;59.842;17.604;2023-07-13T14:46:00;3.35;;;1.38;;
80138;SDS011;69467;59.842;17.604;2023-07-13T14:48:26;10.25;;;1.05;;
80138;SDS011;69467;59.842;17.604;2023-07-13T14:50:53;1.33;;;0.55;;
80138;SDS011;69467;59.842;17.604;2023-07-13T14:53:21;2.40;;;1.38;;
80138;SDS011;69467;59.842;17.604;2023-07-13T14:55:47;2.22;;;0.47;;
80138;SDS011;69467;59.842;17.604;2023-07-13T14:58:12;3.00;;;0.65;;
80138;SDS011;69467;59.842;17.604;2023-07-13T15:00:38;2.65;;;0.43;;
80138;SDS011;69467;59.842;17.604;2023-07-13T15:03:05;2.38;;;1.17;;
80138;SDS011;69467;59.842;17.604;2023-07-13T15:05:39;2.47;;;1.00;;
80138;SDS011;69467;59.842;17.604;2023-07-13T15:08:05;1.85;;;0.82;;
80138;SDS011;69467;59.842;17.604;2023-07-13T15:10:31;1.05;;;0.65;;
80138;SDS011;69467;59.842;17.604;2023-07-13T15:13:12;2.42;;;0.85;;
80138;SDS011;69467;59.842;17.604;2023-07-13T15:15:46;1.58;;;0.68;;
80138;SDS011;69467;59.842;17.604;2023-07-13T15:18:13;1.17;;;0.80;;
80138;SDS011;69467;59.842;17.604;2023-07-13T15:20:42;1.85;;;0.90;;
80138;SDS011;69467;59.842;17.604;2023-07-13T15:23:10;3.92;;;1.50;;
80138;SDS011;69467;59.842;17.604;2023-07-13T15:25:36;5.15;;;0.70;;
80138;SDS011;69467;59.842;17.604;2023-07-13T15:28:01;3.28;;;0.98;;
80138;SDS011;69467;59.842;17.604;2023-07-13T15:30:31;1.67;;;1.05;;
80138;SDS011;69467;59.842;17.604;2023-07-13T15:35:51;2.50;;;0.98;;
80138;SDS011;69467;59.842;17.604;2023-07-13T15:38:25;3.20;;;0.60;;
80138;SDS011;69467;59.842;17.604;2023-07-13T15:40:55;1.67;;;0.65;;
80138;SDS011;69467;59.842;17.604;2023-07-13T15:43:21;2.38;;;0.95;;
80138;SDS011;69467;59.842;17.604;2023-07-13T15:45:47;1.48;;;0.88;;
80138;SDS011;69467;59.842;17.604;2023-07-13T15:48:17;1.35;;;0.55;;
80138;SDS011;69467;59.842;17.604;2023-07-13T15:50:46;3.70;;;0.88;;
80138;SDS011;69467;59.842;17.604;2023-07-13T15:53:14;1.27;;;1.15;;
80138;SDS011;69467;59.842;17.604;2023-07-13T15:55:51;2.20;;;0.80;;
80138;SDS011;69467;59.842;17.604;2023-07-13T15:58:17;2.95;;;0.70;;
80138;SDS011;69467;59.842;17.604;2023-07-13T16:00:43;2.55;;;0.60;;
80138;SDS011;69467;59.842;17.604;2023-07-13T16:03:10;2.38;;;0.70;;
80138;SDS011;69467;59.842;17.604;2023-07-13T16:05:36;0.88;;;0.68;;
80138;SDS011;69467;59.842;17.604;2023-07-13T16:08:02;1.75;;;0.40;;
80138;SDS011;69467;59.842;17.604;2023-07-13T16:10:33;1.05;;;0.20;;
80138;SDS011;69467;59.842;17.604;2023-07-13T16:13:03;0.95;;;0.20;;
80138;SDS011;69467;59.842;17.604;2023-07-13T16:15:30;1.38;;;0.52;;
80138;SDS011;69467;59.842;17.604;2023-07-13T16:17:56;1.75;;;0.57;;
80138;SDS011;69467;59.842;17.604;2023-07-13T16:20:22;3.08;;;0.57;;
80138;SDS011;69467;59.842;17.604;2023-07-13T16:22:49;0.52;;;0.28;;
80138;SDS011;69467;59.842;17.604;2023-07-13T16:25:22;1.40;;;0.38;;
80138;SDS011;69467;59.842;17.604;2023-07-13T16:27:49;0.20;;;0.20;;
80138;SDS011;69467;59.842;17.604;2023-07-13T16:30:17;0.45;;;0.20;;
80138;SDS011;69467;59.842;17.604;2023-07-13T16:32:51;1.60;;;0.32;;
80138;SDS011;69467;59.842;17.604;2023-07-13T16:35:29;3.10;;;0.70;;
80138;SDS011;69467;59.842;17.604;2023-07-13T16:38:01;0.38;;;0.30;;
80138;SDS011;69467;59.842;17.604;2023-07-13T16:40:32;0.28;;;0.22;;
80138;SDS011;69467;59.842;17.604;2023-07-13T16:42:58;0.98;;;0.30;;
80138;SDS011;69467;59.842;17.604;2023-07-13T16:45:25;0.90;;;0.32;;
80138;SDS011;69467;59.842;17.604;2023-07-13T16:47:55;1.35;;;0.30;;
80138;SDS011;69467;59.842;17.604;2023-07-13T16:50:23;4.30;;;0.50;;
80138;SDS011;69467;59.842;17.604;2023-07-13T16:52:50;1.25;;;0.55;;
80138;SDS011;69467;59.842;17.604;2023-07-13T16:55:17;2.92;;;1.10;;
80138;SDS011;69467;59.842;17.604;2023-07-13T17:00:19;0.30;;;0.22;;
80138;SDS011;69467;59.842;17.604;2023-07-13T17:03:00;2.95;;;0.30;;
80138;SDS011;69467;59.842;17.604;2023-07-13T17:05:29;0.50;;;0.30;;
80138;SDS011;69467;59.842;17.604;2023-07-13T17:07:57;1.35;;;0.50;;
80138;SDS011;69467;59.842;17.604;2023-07-13T17:10:24;1.77;;;0.40;;
80138;SDS011;69467;59.842;17.604;2023-07-13T17:12:51;1.23;;;0.40;;
80138;SDS011;69467;59.842;17.604;2023-07-13T17:15:18;1.80;;;0.40;;
80138;SDS011;69467;59.842;17.604;2023-07-13T17:17:44;0.95;;;0.40;;
80138;SDS011;69467;59.842;17.604;2023-07-13T17:20:17;0.40;;;0.25;;
80138;SDS011;69467;59.842;17.604;2023-07-13T17:22:47;2.00;;;0.40;;
80138;SDS011;69467;59.842;17.604;2023-07-13T17:25:13;3.88;;;0.65;;
80138;SDS011;69467;59.842;17.604;2023-07-13T17:27:39;3.53;;;1.02;;
80138;SDS011;69467;59.842;17.604;2023-07-13T17:30:05;0.80;;;0.50;;
80138;SDS011;69467;59.842;17.604;2023-07-13T17:32:31;0.77;;;0.60;;
80138;SDS011;69467;59.842;17.604;2023-07-13T17:34:59;2.67;;;1.05;;
80138;SDS011;69467;59.842;17.604;2023-07-13T17:37:24;2.45;;;0.98;;
80138;SDS011;69467;59.842;17.604;2023-07-13T17:42:15;3.25;;;0.50;;
80138;SDS011;69467;59.842;17.604;2023-07-13T17:49:51;1.30;;;0.65;;
80138;SDS011;69467;59.842;17.604;2023-07-13T17:52:17;2.35;;;1.48;;
80138;SDS011;69467;59.842;17.604;2023-07-13T17:54:43;0.93;;;0.60;;
80138;SDS011;69467;59.842;17.604;2023-07-13T17:57:08;1.10;;;0.40;;
80138;SDS011;69467;59.842;17.604;2023-07-13T17:59:35;2.03;;;0.57;;
80138;SDS011;69467;59.842;17.604;2023-07-13T18:02:01;2.15;;;0.40;;
80138;SDS011;69467;59.842;17.604;2023-07-13T18:06:52;3.20;;;0.90;;
80138;SDS011;69467;59.842;17.604;2023-07-13T18:09:23;2.72;;;1.27;;
80138;SDS011;69467;59.842;17.604;2023-07-13T18:11:51;1.02;;;0.60;;
80138;SDS011;69467;59.842;17.604;2023-07-13T18:14:17;2.47;;;0.43;;
80138;SDS011;69467;59.842;17.604;2023-07-13T18:16:46;1.75;;;0.40;;
80138;SDS011;69467;59.842;17.604;2023-07-13T18:19:38;3.13;;;0.50;;
80138;SDS011;69467;59.842;17.604;2023-07-13T18:22:13;1.48;;;0.40;;
80138;SDS011;69467;59.842;17.604;2023-07-13T18:24:40;0.80;;;0.40;;
80138;SDS011;69467;59.842;17.604;2023-07-13T18:27:06;1.33;;;0.40;;
80138;SDS011;69467;59.842;17.604;2023-07-13T18:29:33;1.27;;;0.30;;
80138;SDS011;69467;59.842;17.604;2023-07-13T18:31:59;3.70;;;1.05;;
80138;SDS011;69467;59.842;17.604;2023-07-13T18:34:28;7.35;;;0.75;;